• Join FlightAware (Why Join?)
  • Login
  • US Flag 
10:18AM EDT


 

Airport Tracker/Info


-or-


 

Live Flight TrackerFlight Track Log ✈ EGF2592 ✈ 08-May-2013 ✈ KSHV - KDFW

Flight Track Log - Related Links

Times and Time Zones

All times are in EDT time to prevent confusion due to time zone crossing. See the EGF2592 flight status page for this flight to view local times or setup timezone preferences in your user account.

Time Position Orientation Groundspeed Altitude Reporting Facility
EDT Latitude Longitude Course Direction KTS MPH feet Rate Location/Type
01:28PM 32.4785 -94.0345 280° West  Level Estimated
01:29PM 32.4891 -94.1042 280° West  Level Estimated
01:30PM 32.4996 -94.1739 280° West  Level Estimated
01:31PM 32.5101 -94.2436 280° West  Level Estimated
01:32PM 32.5205 -94.3133 280° West  Level Estimated
01:33PM 32.5309 -94.3831 280° West  Level Estimated
01:34PM 32.5413 -94.4529 280° West  Level Estimated
01:35PM 32.5516 -94.5226 280° West  Level Estimated
01:36PM 32.5619 -94.5924 280° West  Level Estimated
01:37PM 32.5722 -94.6622 280° West  Level Estimated
01:38PM 32.5824 -94.7320 280° West  Level Estimated
01:39PM 32.5926 -94.8019 280° West  Level Estimated
01:40PM 32.6027 -94.8717 280° West  Level Estimated
01:41PM 32.6128 -94.9416 280° West  Level Estimated
01:42PM 32.6229 -95.0115 280° West  Level Estimated
01:43PM 32.6329 -95.0814 280° West  Level Estimated
01:44PM 32.6429 -95.1513 280° West  Level Estimated
01:45PM 32.6528 -95.2212 280° West  Level Estimated
01:46PM 32.6627 -95.2912 280° West  Level Estimated
01:47PM 32.6726 -95.3611 280° West  Level Estimated
01:48PM 32.6824 -95.4311 279° West  Level Estimated
01:49PM 32.6922 -95.5011 279° West  Level Estimated
01:50PM 32.7020 -95.5711 279° West  Level Estimated
01:51PM 32.7117 -95.6411 279° West  Level Estimated
01:52PM 32.7213 -95.7112 279° West  Level Estimated
01:53PM 32.7310 -95.7812 279° West  Level Estimated
01:54PM 32.7406 -95.8513 279° West  Level Estimated
01:55PM 32.7501 -95.9214 279° West  Level Estimated
01:56PM 32.7596 -95.9915 279° West  Level Estimated
01:57PM 32.7691 -96.0616 279° West  Level Estimated
01:58PM 32.7786 -96.1317 279° West  Level Estimated
01:59PM 32.7880 -96.2019 279° West  Level Estimated
02:00PM 32.7973 -96.2720 279° West  Level Estimated
02:01PM 32.8066 -96.3422 279° West  Level Estimated
02:02PM 32.8159 -96.4124 279° West  Level Estimated
02:03PM 32.8252 -96.4826 279° West  Level Estimated
02:04PM 32.8344 -96.5528 279° West  Level Estimated
02:05PM 32.8435 -96.6230 279° West  Level Estimated